Aviation Digital Data Service (ADDS)

Output produced by METARs form (1814 UTC 19 August 2019)
found at http://www.aviationweather.gov/metar/data/
 
Forecast for: AGGN (GIZO/NUSATUPE , SB)
Text: TAF AGGN 191720Z 1918/2018 14015KT 9999 -SHRA SCT017 BKN100
Forecast period: 1800 UTC 19 August 2019 to 1800 UTC 20 August 2019
Forecast type: FROM: standard forecast or significant change
Winds: from the SE (140 degrees) at 17 MPH (15 knots; 7.7 m/s)
Visibility: 6 or more miles 10+ km)
Ceiling: 10000 feet AGL
Clouds: scattered clouds at 1700 feet AGL
broken clouds at 10000 feet AGL
Weather: -SHRA  (light rain showers)
Text: PROB40 INTER 1918/2004 5000 TSSH BKN016 FEW017CB Q 1008 1010 1010 1008
Forecast period: 1800 UTC 19 August 2019 to 0400 UTC 20 August 2019
Forecast type: TEMPORARY: The following changes expected for less than half the time period
Visibility: 3 miles (5 km)
Ceiling: 1600 feet AGL
Clouds: broken clouds at 1600 feet AGL
few clouds at 1700 feet AGL
Weather: SH TS  (showers, thunderstorm)